SCLP weather

Los Petiles Airport
Molina, Maule Region, Chile

Public forecast

Using degrees Celsius for public forecast. Weather courtesy of forecast.io.

Closest aviation weather report (METAR) to Los Petiles Airport

Closest report is General Freire Airport, 15.9 nm (29.4 km) NNW. Retrieved 2020/05/29 00:00 UTC (42 minutes ago):

SCIC 290000Z AUTO VRB02KT 6000 -RA NCD 12/12 Q1019

Closest aviation forecast (TAF) to Los Petiles Airport

Closest forecast is Comodoro Arturo Merino Benítez International Airport, 110.6 nm (204.8 km) N. Retrieved 2020-05-29 00:00 UTC (42 minutes ago):

TAF SCEL 282206Z 2900/2924 16004KT 7000 SCT030 OVC170 TX13/2919Z TN09/2910Z TEMPO 2906/2913 VRB02KT 4000 BR SCT040 BKN100 BECMG 2916/2918 18008KT TEMPO 2920/3000 31004KT 6000 -SHRA SCT020 BKN050